Terminal Aerodrome Forecast
Issued by NWS

Home | Current Version | Previous Version | Text Only | Print | Product List | Glossary On
Versions: 1 2 3 4 5 6 7 8 9 10 11 12 13 14 15 16 17 18 19 20
000
FTUS41 KBTV 301734
TAFSLK
TAF
KSLK 301734Z 3018/3118 22015G25KT P6SM VCTS SCT035CB BKN050
     FM310000 23009KT P6SM -SHRA OVC045
     FM310300 23005KT 4SM -RA BR OVC025
     FM311500 04005KT 6SM -SHRA BR OVC015=

USA.gov is the U.S. government's official web portal to all federal, state and local government web resources and services.